• Join FlightAware (Why Join?)
  • Login
  • US Flag 
11:05AM EST


 

Airport Tracker/Info


-or-


 

Live Flight TrackerFlight Track Log ✈ SWA2130 ✈ 06-May-2013 ✈ KSFO - KLAX

Flight Track Log - Related Links

Times and Time Zones

All times are in EDT time to prevent confusion due to time zone crossing. See the SWA2130 flight status page for this flight to view local times or setup timezone preferences in your user account.

Time Position Orientation Groundspeed Altitude Reporting Facility
EDT Latitude Longitude Course Direction KTS MPH feet Rate Location/Type
07:02PM 37.6569 -122.4639 283° West 214 246 4,000  Level Oakland Center
07:03PM 37.6667 -122.5167 283° West 268 308 5,900 3,780 Climbing Northern Cal TRACON
07:05PM 37.5481 -122.4259 202° Southwest  Level FlightAware Approximate
07:06PM 37.4675 -122.3667 133° Southeast 341 392 19,400  Level Oakland Center
07:07PM 37.3997 -122.2739 133° Southeast 357 411 22,700 3,180 Climbing Oakland Center
07:08PM 37.3281 -122.1772 133° Southeast 376 433 25,900 2,160 Climbing Oakland Center
07:09PM 37.2403 -122.0589 133° Southeast 387 445 27,100 1,620 Climbing Oakland Center
07:10PM 37.1647 -121.9542 132° Southeast 402 463 29,200 1,860 Climbing Oakland Center
07:12PM 37.0746 -121.8605 133° Southeast  Level FlightAware Approximate
07:12PM 36.9986 -121.7350 133° Southeast 439 505 32,900  Level Oakland Center
07:13PM 36.9131 -121.6211 133° Southeast 448 516 34,800 1,620 Climbing Oakland Center
07:14PM 36.8261 -121.5061 133° Southeast 454 522 36,200 1,500 Climbing Oakland Center
07:15PM 36.7419 -121.3933 133° Southeast 463 533 37,900 1,320 Climbing Oakland Center
07:16PM 36.6533 -121.2775 134° Southeast 463 533 39,000 540 Climbing Oakland Center
07:17PM 36.5464 -121.1386 134° Southeast 462 532 39,000  Level Oakland Center
07:18PM 36.4567 -121.0197 133° Southeast 469 540 39,000  Level Oakland Center
07:19PM 36.3667 -120.9025 134° Southeast 470 541 39,000  Level Oakland Center
07:21PM 36.1881 -120.6703 134° Southeast 465 535 39,000  Level Oakland Center
07:22PM 36.0969 -120.5550 134° Southeast 467 537 39,000  Level Oakland Center
07:24PM 35.9711 -120.3914 134° Southeast 466 536 39,000  Level Los Angeles Center
07:25PM 35.9169 -120.3247 135° Southeast 461 531 39,000  Level Oakland Center
07:26PM 35.8264 -120.2083 134° Southeast 465 535 39,000  Level Oakland Center
07:27PM 35.7350 -120.0908 134° Southeast 471 542 39,000 -600 Level Oakland Center
07:28PM 35.5547 -119.9008 139° Southeast 466 536 37,500 -840 Descending Los Angeles Center
07:29PM 35.5333 -119.8822 145° Southeast 470 541 37,300 -900 Descending Oakland Center
07:30PM 35.4253 -119.7881 145° Southeast 472 543 36,300 -1,020 Descending Oakland Center
07:31PM 35.3167 -119.6933 145° Southeast 476 548 35,400 -1,020 Descending Los Angeles Center
07:32PM 35.2081 -119.6006 145° Southeast 476 548 34,400 -960 Descending Los Angeles Center
07:33PM 35.0992 -119.5089 145° Southeast 474 545 33,500 -1,140 Descending Los Angeles Center
07:34PM 34.9919 -119.4158 145° Southeast 474 545 32,100 -1,860 Descending Los Angeles Center
07:35PM 34.8881 -119.3281 145° Southeast 458 527 29,700 -2,220 Descending Los Angeles Center
07:36PM 34.7875 -119.2428 145° Southeast 442 509 27,200 -2,520 Descending Los Angeles Center
07:37PM 34.6533 -119.1278 145° Southeast 422 486 24,000 -2,760 Descending Los Angeles Center
07:38PM 34.5539 -119.0506 147° Southeast 408 470 21,600 -2,340 Descending Los Angeles Center
07:39PM 34.4661 -118.9758 145° Southeast 384 442 19,300 -2,160 Descending Los Angeles Center
07:40PM 34.3819 -118.9031 144° Southeast 366 421 17,200 -2,160 Descending Los Angeles Center
07:41PM 34.2928 -118.8589 158° South 343 395 14,900 -1,920 Descending Los Angeles Center
07:43PM 34.1333 -118.8000 163° South 310 357 12,100 -1,500 Descending Southern California TRACON
07:43PM 34.1217 -118.7950 160° South 313 360 11,800 -1,320 Descending Los Angeles Center
07:44PM 34.0403 -118.7450 153° Southeast 292 336 10,300 -780 Descending Los Angeles Center
07:46PM 34.0167 -118.5833 100° East 289 333 9,900 -300 Descending Southern California TRACON
07:46PM 34.0181 -118.5453 87° East 285 328 9,700 -420 Descending Los Angeles Center
07:47PM 34.0114 -118.4792 97° East 259 298 9,300 -660 Descending Los Angeles Center
07:48PM 34.0183 -118.3886 85° East 231 266 8,400 -960 Descending Los Angeles Center
07:49PM 34.0283 -118.3161 81° East 222 255 7,400 -1,260 Descending Los Angeles Center
07:51PM 34.0433 -118.1778 83° East 207 238 4,600 -1,200 Descending Los Angeles Center
07:53PM 34.0169 -118.1439 133° Southeast 203 234 3,500 -540 Descending Los Angeles Center
07:54PM 33.9706 -118.2044 227° Southwest 204 235 3,500 -720 Level Los Angeles Center
07:56PM 33.9667 -118.3333 268° West 155 178 1,200 -960 Descending Southern California TRACON
07:57PM 33.9500 -118.3833 248° West 129 148 400 -780 Descending Southern California TRACON
08:00PM 33.9333 -118.4000 244° Southwest  Level FlightAware Approximate
08:07PM 33.9425 -118.4081 244° Southwest  Level Estimated
08:08PM 33.9425 -118.4081 244° Southwest  Level Estimated
08:09PM 33.9425 -118.4081 244° Southwest  Level Estimated
08:10PM 33.9425 -118.4081 244° Southwest  Level Estimated
08:11PM 33.9425 -118.4081 244° Southwest  Level Estimated
08:12PM 33.9425 -118.4081 244° Southwest  Level Estimated
08:13PM 33.9425 -118.4081 244° Southwest  Level Estimated